Time;durP1;ratioP1;P1;durP2;ratioP2;P2;SDS_P1;SDS_P2;PMS_P1;PMS_P2;Temp;Humidity;BMP_temperature;BMP_pressure;BME280_temperature;BME280_humidity;BME280_pressure;Samples;Min_cycle;Max_cycle;Signal;HPM_P1;HPM_P2
2021/09/26 00:00:16;;;;;;;14.43;9.88;;;18.80;85.00;;;;;;4955772;29;20408;-71
2021/09/26 00:02:42;;;;;;;14.30;11.02;;;18.80;84.90;;;;;;4955825;29;20031;-71
2021/09/26 00:05:09;;;;;;;13.90;10.80;;;18.80;84.50;;;;;;4955964;29;20051;-72
2021/09/26 00:07:35;;;;;;;13.60;10.60;;;18.80;84.70;;;;;;4938040;29;20027;-71
2021/09/26 00:10:00;;;;;;;17.25;11.10;;;18.80;84.90;;;;;;4955463;29;20499;-71
2021/09/26 00:12:26;;;;;;;12.57;9.95;;;18.70;84.60;;;;;;4955536;29;20088;-71
2021/09/26 00:14:53;;;;;;;16.77;10.43;;;18.70;85.30;;;;;;4955592;29;20046;-71
2021/09/26 00:17:18;;;;;;;12.98;10.13;;;18.80;85.10;;;;;;4955777;29;20686;-71
2021/09/26 00:19:44;;;;;;;13.70;9.50;;;18.80;85.10;;;;;;4938186;29;20122;-71
2021/09/26 00:22:10;;;;;;;13.73;10.15;;;18.80;84.80;;;;;;4954835;29;20043;-71
2021/09/26 00:24:35;;;;;;;13.48;9.38;;;18.80;85.20;;;;;;4954711;28;20035;-71
2021/09/26 00:27:01;;;;;;;12.63;9.77;;;18.80;86.10;;;;;;4954879;28;20404;-71
2021/09/26 00:29:27;;;;;;;16.90;10.68;;;18.80;85.10;;;;;;4955777;29;20035;-71
2021/09/26 00:31:52;;;;;;;13.48;10.45;;;18.80;85.90;;;;;;4954954;29;20141;-71
2021/09/26 00:34:18;;;;;;;14.02;10.02;;;18.80;86.10;;;;;;4954776;29;20134;-71
2021/09/26 00:36:44;;;;;;;16.83;10.63;;;18.90;85.60;;;;;;4954772;29;20055;-71
2021/09/26 00:39:09;;;;;;;13.73;9.68;;;18.90;85.10;;;;;;4955138;29;20031;-72
2021/09/26 00:41:35;;;;;;;12.80;9.32;;;18.90;85.50;;;;;;4955277;29;20062;-71
2021/09/26 00:44:01;;;;;;;12.45;9.38;;;18.90;85.90;;;;;;4955280;29;20503;-71
2021/09/26 00:46:26;;;;;;;15.15;10.05;;;18.90;85.90;;;;;;4954887;29;20035;-71
2021/09/26 00:48:52;;;;;;;14.15;9.50;;;18.90;85.50;;;;;;4954976;29;20023;-71
2021/09/26 00:51:18;;;;;;;15.52;10.38;;;18.90;85.60;;;;;;4954257;29;20148;-71
2021/09/26 00:53:44;;;;;;;14.82;10.55;;;18.90;85.90;;;;;;4954867;29;20496;-70
2021/09/26 00:56:11;;;;;;;15.25;8.98;;;18.90;85.10;;;;;;4954935;29;20119;-72
2021/09/26 00:58:37;;;;;;;14.70;10.00;;;18.80;86.00;;;;;;4954717;29;20441;-72
2021/09/26 01:01:03;;;;;;;13.57;9.80;;;18.90;86.60;;;;;;4954209;29;20408;-72
2021/09/26 01:03:29;;;;;;;14.55;9.77;;;18.90;85.90;;;;;;4954653;29;20039;-72
2021/09/26 01:06:35;;;;;;;15.50;10.63;;;18.90;86.20;;;;;;4954327;29;20118;-72
2021/09/26 01:09:22;;;;;;;13.75;9.57;;;18.90;84.80;;;;;;4876660;29;20470;-71
2021/09/26 01:12:07;;;;;;;18.70;10.45;;;18.90;86.50;;;;;;4888270;29;20033;-72
2021/09/26 01:15:07;;;;;;;14.23;9.25;;;18.90;86.50;;;;;;4888570;29;20525;-72
2021/09/26 01:17:40;;;;;;;17.20;10.07;;;18.90;85.80;;;;;;4882328;29;20170;-72
2021/09/26 01:20:33;;;;;;;15.05;9.70;;;18.90;86.50;;;;;;4880098;29;20124;-73
2021/09/26 01:23:05;;;;;;;13.93;9.35;;;18.80;86.00;;;;;;4880792;29;20468;-71
2021/09/26 01:25:45;;;;;;;13.35;8.95;;;18.80;86.70;;;;;;4880710;29;20083;-72
2021/09/26 01:28:38;;;;;;;13.40;8.85;;;18.90;86.40;;;;;;4880504;29;20036;-72
2021/09/26 01:31:12;;;;;;;14.40;9.45;;;18.90;86.40;;;;;;4880334;29;20081;-72
2021/09/26 01:33:42;;;;;;;13.43;8.70;;;18.90;86.50;;;;;;4880391;29;20052;-71
2021/09/26 01:36:39;;;;;;;12.38;9.10;;;18.90;86.40;;;;;;4877113;29;20041;-71
2021/09/26 01:39:10;;;;;;;13.95;9.25;;;18.90;85.90;;;;;;4862427;29;20040;-71
2021/09/26 01:41:50;;;;;;;14.27;9.23;;;18.90;87.40;;;;;;4879547;29;20126;-71
2021/09/26 01:44:45;;;;;;;11.40;8.52;;;18.90;86.60;;;;;;4880994;29;20025;-71
2021/09/26 01:47:16;;;;;;;14.43;8.73;;;18.90;87.30;;;;;;4953140;29;20051;-71
2021/09/26 01:49:48;;;;;;;16.60;8.43;;;18.90;87.30;;;;;;4953595;29;20039;-71
2021/09/26 01:52:36;;;;;;;12.60;7.97;;;19.00;87.40;;;;;;4953871;29;20032;-72
2021/09/26 01:55:05;;;;;;;10.48;8.02;;;19.00;86.80;;;;;;4953743;29;20274;-71
2021/09/26 01:57:33;;;;;;;11.23;8.10;;;19.00;87.30;;;;;;4953899;29;20050;-72
2021/09/26 02:00:04;;;;;;;13.13;8.88;;;19.00;87.60;;;;;;4953897;29;20090;-71
2021/09/26 02:02:30;;;;;;;14.38;8.73;;;19.00;87.20;;;;;;4937156;29;20051;-71
2021/09/26 02:04:59;;;;;;;11.32;7.97;;;19.00;87.80;;;;;;4953455;29;20051;-71
2021/09/26 02:07:36;;;;;;;12.60;8.30;;;19.00;87.70;;;;;;4953801;29;20027;-71
2021/09/26 02:10:05;;;;;;;11.93;8.45;;;19.00;87.50;;;;;;4936415;29;20454;-71
2021/09/26 02:12:32;;;;;;;10.60;7.55;;;19.00;87.60;;;;;;4953753;29;20042;-71
2021/09/26 02:14:59;;;;;;;13.15;8.48;;;19.00;87.60;;;;;;4953729;29;20035;-71
2021/09/26 02:17:29;;;;;;;9.95;7.40;;;19.00;87.80;;;;;;4953849;29;20063;-71
2021/09/26 02:20:01;;;;;;;11.70;7.38;;;19.10;87.80;;;;;;4953559;29;20062;-71
2021/09/26 02:22:30;;;;;;;11.02;7.70;;;19.10;87.70;;;;;;4953478;29;20043;-71
2021/09/26 02:24:59;;;;;;;11.35;7.32;;;19.10;87.60;;;;;;4953479;29;20122;-71
2021/09/26 02:27:26;;;;;;;10.65;7.35;;;19.10;87.80;;;;;;4953635;29;20037;-71
2021/09/26 02:29:52;;;;;;;11.23;7.95;;;19.10;87.60;;;;;;4953482;29;20539;-72
2021/09/26 02:32:17;;;;;;;11.77;7.80;;;19.10;88.50;;;;;;4953755;29;20031;-71
2021/09/26 02:34:43;;;;;;;10.15;7.25;;;19.20;88.00;;;;;;4953478;29;20146;-71
2021/09/26 02:37:09;;;;;;;12.13;7.20;;;19.20;87.50;;;;;;4953395;29;20054;-72
2021/09/26 02:39:34;;;;;;;11.38;7.55;;;19.10;87.60;;;;;;4953441;29;20110;-71
2021/09/26 02:42:00;;;;;;;12.77;7.55;;;19.10;87.60;;;;;;4953431;29;20035;-72
2021/09/26 02:45:03;;;;;;;17.98;8.18;;;19.10;87.20;;;;;;4953998;29;20488;-72
2021/09/26 02:47:37;;;;;;;9.77;6.80;;;19.10;86.50;;;;;;4857498;29;20056;-72
2021/09/26 02:50:04;;;;;;;12.68;7.82;;;19.10;87.60;;;;;;4858589;29;20038;-72
2021/09/26 02:52:30;;;;;;;11.65;7.28;;;19.10;87.60;;;;;;4861851;29;20107;-71
2021/09/26 02:54:56;;;;;;;12.65;6.85;;;19.20;87.60;;;;;;4861888;29;20041;-71
2021/09/26 02:57:23;;;;;;;10.27;6.55;;;19.20;87.50;;;;;;4861844;29;20042;-71
2021/09/26 02:59:49;;;;;;;9.77;6.68;;;19.20;87.40;;;;;;4861776;29;20033;-71
2021/09/26 03:02:15;;;;;;;10.10;6.63;;;19.30;87.60;;;;;;4860770;29;20041;-70
2021/09/26 03:04:43;;;;;;;12.13;7.47;;;19.30;87.40;;;;;;4861634;29;20046;-72
2021/09/26 03:07:08;;;;;;;13.18;6.75;;;19.30;87.20;;;;;;4861675;29;20034;-72
2021/09/26 03:09:34;;;;;;;10.85;6.13;;;19.20;86.90;;;;;;4861596;29;20070;-72
2021/09/26 03:12:00;;;;;;;15.70;6.50;;;19.30;87.40;;;;;;4861611;29;20037;-71
2021/09/26 03:14:25;;;;;;;8.68;6.57;;;19.30;87.40;;;;;;4860809;29;20573;-71
2021/09/26 03:16:51;;;;;;;8.80;5.68;;;19.30;87.40;;;;;;4861201;29;20081;-72
2021/09/26 03:19:16;;;;;;;11.35;6.32;;;19.30;87.20;;;;;;4861431;29;20033;-72
2021/09/26 03:21:42;;;;;;;9.82;6.63;;;19.30;87.40;;;;;;4861272;29;20049;-71
2021/09/26 03:24:08;;;;;;;9.77;6.72;;;19.30;87.30;;;;;;4924884;29;20046;-71
2021/09/26 03:26:34;;;;;;;10.88;6.63;;;19.30;87.20;;;;;;4956739;29;20114;-71
2021/09/26 03:28:59;;;;;;;9.15;5.97;;;19.30;87.60;;;;;;4956627;29;20024;-71
2021/09/26 03:31:25;;;;;;;11.80;6.90;;;19.30;87.40;;;;;;4956120;29;20089;-71
2021/09/26 03:33:54;;;;;;;11.32;7.05;;;19.30;87.40;;;;;;4956104;29;20054;-71
2021/09/26 03:36:20;;;;;;;10.90;6.80;;;19.20;87.50;;;;;;4956325;29;20031;-71
2021/09/26 03:38:46;;;;;;;10.05;5.88;;;19.20;87.60;;;;;;4956546;29;20032;-72
2021/09/26 03:41:12;;;;;;;12.75;6.15;;;19.20;88.00;;;;;;4956668;29;20102;-71
2021/09/26 03:43:37;;;;;;;14.05;6.57;;;19.20;87.40;;;;;;4956207;29;20038;-72
2021/09/26 03:46:03;;;;;;;11.07;6.63;;;19.20;87.40;;;;;;4955918;29;20027;-72
2021/09/26 03:48:28;;;;;;;11.35;6.45;;;19.20;87.60;;;;;;4956271;29;20042;-72
2021/09/26 03:50:55;;;;;;;10.60;6.30;;;19.20;87.50;;;;;;4956184;29;20057;-72
2021/09/26 03:53:20;;;;;;;10.05;5.97;;;19.20;87.10;;;;;;4956532;29;20453;-72
2021/09/26 03:55:46;;;;;;;11.50;6.22;;;19.20;87.50;;;;;;4956198;29;20028;-72
2021/09/26 03:58:12;;;;;;;9.45;5.85;;;19.20;87.70;;;;;;4956651;29;20027;-72
2021/09/26 04:00:38;;;;;;;8.68;6.07;;;19.20;87.90;;;;;;4938770;29;20031;-72
2021/09/26 04:03:04;;;;;;;9.13;5.70;;;19.20;87.80;;;;;;4954124;28;20031;-72
2021/09/26 04:05:29;;;;;;;7.82;5.43;;;19.20;87.80;;;;;;4956771;29;20102;-72
2021/09/26 04:07:55;;;;;;;8.48;4.95;;;19.20;87.80;;;;;;4955688;29;20077;-72
2021/09/26 04:10:21;;;;;;;8.15;5.20;;;19.20;87.70;;;;;;4955563;29;20039;-71
2021/09/26 04:12:47;;;;;;;7.00;5.13;;;19.20;88.20;;;;;;4955032;29;20377;-71
2021/09/26 04:15:13;;;;;;;8.10;5.25;;;19.20;87.90;;;;;;4954803;29;20031;-72
2021/09/26 04:17:39;;;;;;;7.80;5.28;;;19.20;87.90;;;;;;4955085;29;20035;-72
2021/09/26 04:20:07;;;;;;;7.88;4.63;;;19.20;88.20;;;;;;4955413;29;20034;-72
2021/09/26 04:22:34;;;;;;;10.27;5.03;;;19.20;88.10;;;;;;4954979;29;20385;-72
2021/09/26 04:25:00;;;;;;;6.68;4.53;;;19.10;87.80;;;;;;4937815;29;20027;-71
2021/09/26 04:27:26;;;;;;;6.40;4.43;;;19.10;88.10;;;;;;4954920;29;20031;-71
2021/09/26 04:29:53;;;;;;;7.20;4.43;;;19.10;88.20;;;;;;4954328;29;20038;-71
2021/09/26 04:32:19;;;;;;;6.25;4.35;;;19.10;88.40;;;;;;4955235;29;20098;-71
2021/09/26 04:34:45;;;;;;;6.10;3.72;;;19.00;88.20;;;;;;4954540;29;20500;-71
2021/09/26 04:37:11;;;;;;;5.38;4.20;;;19.00;88.30;;;;;;4954577;29;20071;-71
2021/09/26 04:39:37;;;;;;;7.78;4.15;;;19.10;88.10;;;;;;4954662;29;20027;-71
2021/09/26 04:42:03;;;;;;;7.60;4.50;;;19.10;88.30;;;;;;4954468;29;20039;-72
2021/09/26 04:44:29;;;;;;;7.28;4.53;;;19.10;88.30;;;;;;4955010;29;20362;-72
2021/09/26 04:46:55;;;;;;;7.05;4.60;;;19.00;88.50;;;;;;4954573;29;20106;-72
2021/09/26 04:49:21;;;;;;;6.40;4.25;;;19.00;88.30;;;;;;4954372;29;20488;-72
2021/09/26 04:51:46;;;;;;;8.20;4.55;;;19.00;88.40;;;;;;4954352;29;20082;-71
2021/09/26 04:54:12;;;;;;;7.03;4.20;;;19.00;88.50;;;;;;4954357;29;20078;-71
2021/09/26 04:56:37;;;;;;;9.02;5.10;;;19.00;88.50;;;;;;4954440;29;20412;-72
2021/09/26 04:59:03;;;;;;;6.28;4.40;;;19.00;88.50;;;;;;4953944;29;20069;-71
2021/09/26 05:01:29;;;;;;;7.43;4.10;;;19.00;88.40;;;;;;4953941;29;20429;-71
2021/09/26 05:03:55;;;;;;;5.85;4.03;;;19.00;88.80;;;;;;4954106;29;20039;-72
2021/09/26 05:06:20;;;;;;;9.48;4.70;;;19.00;88.70;;;;;;4954420;29;20023;-72
2021/09/26 05:08:46;;;;;;;7.13;4.30;;;19.00;89.20;;;;;;4954364;29;20039;-71
2021/09/26 05:11:12;;;;;;;8.25;4.40;;;18.90;88.50;;;;;;4954324;29;20023;-71
2021/09/26 05:13:37;;;;;;;8.05;4.45;;;19.00;88.50;;;;;;4954063;28;20306;-71
2021/09/26 05:16:03;;;;;;;8.05;4.80;;;19.00;88.90;;;;;;4953444;29;20455;-71
2021/09/26 05:18:29;;;;;;;7.05;4.35;;;19.00;89.60;;;;;;4953832;29;20042;-71
2021/09/26 05:20:55;;;;;;;8.73;4.95;;;19.00;88.90;;;;;;4954188;29;20039;-70
2021/09/26 05:23:21;;;;;;;9.77;4.63;;;19.00;89.00;;;;;;4954383;29;20046;-71
2021/09/26 05:25:47;;;;;;;6.13;4.30;;;19.00;88.80;;;;;;4953390;29;20027;-71
2021/09/26 05:28:13;;;;;;;7.50;4.70;;;19.00;89.00;;;;;;4953647;29;20050;-72
2021/09/26 05:30:38;;;;;;;6.95;4.82;;;19.00;88.80;;;;;;4953614;29;20040;-71
2021/09/26 05:33:04;;;;;;;8.90;5.22;;;19.00;88.70;;;;;;4953540;29;20046;-72
2021/09/26 05:35:30;;;;;;;6.60;4.70;;;19.00;88.70;;;;;;4954434;29;20035;-72
2021/09/26 05:37:57;;;;;;;9.00;5.07;;;19.10;88.80;;;;;;4953483;29;20039;-72
2021/09/26 05:40:23;;;;;;;8.90;4.85;;;19.10;88.70;;;;;;4953179;29;20023;-72
2021/09/26 05:42:50;;;;;;;9.27;5.78;;;19.10;88.70;;;;;;4953724;29;20086;-72
2021/09/26 05:45:16;;;;;;;9.73;6.05;;;19.10;88.70;;;;;;4953311;29;20039;-72
2021/09/26 05:47:41;;;;;;;9.30;6.40;;;19.10;88.80;;;;;;4953549;29;20377;-71
2021/09/26 05:50:08;;;;;;;12.70;6.65;;;19.10;88.70;;;;;;4953778;29;20019;-71
2021/09/26 05:52:33;;;;;;;11.35;6.97;;;19.10;88.60;;;;;;4953171;29;20102;-71
2021/09/26 05:54:59;;;;;;;9.80;7.18;;;19.10;88.70;;;;;;4953212;29;20487;-71
2021/09/26 05:57:24;;;;;;;10.18;7.07;;;19.10;88.70;;;;;;4953368;29;20035;-72
2021/09/26 05:59:50;;;;;;;10.68;8.05;;;19.00;88.70;;;;;;4953197;29;20031;-71
2021/09/26 06:02:23;;;;;;;12.13;8.00;;;19.00;88.60;;;;;;4953739;29;20043;-70
2021/09/26 06:04:49;;;;;;;10.80;7.53;;;19.10;88.70;;;;;;4953129;29;20054;-71
2021/09/26 06:07:15;;;;;;;11.15;8.07;;;19.00;88.50;;;;;;4953073;29;20039;-71
2021/09/26 06:09:42;;;;;;;15.85;10.43;;;19.00;88.50;;;;;;4953061;29;20046;-71
2021/09/26 06:12:12;;;;;;;11.75;7.90;;;19.00;88.60;;;;;;4953235;29;20039;-71
2021/09/26 06:14:38;;;;;;;15.43;10.93;;;19.00;88.60;;;;;;4953246;29;20031;-71
2021/09/26 06:17:04;;;;;;;11.50;8.07;;;19.00;88.60;;;;;;4952645;29;20054;-71
2021/09/26 06:19:30;;;;;;;12.23;8.18;;;19.00;88.30;;;;;;4953354;29;20516;-72
2021/09/26 06:21:56;;;;;;;11.27;8.13;;;19.00;88.50;;;;;;4952737;29;20523;-71
2021/09/26 06:24:22;;;;;;;9.70;7.80;;;19.00;88.70;;;;;;4952662;29;20028;-71
2021/09/26 06:26:47;;;;;;;12.73;9.40;;;19.00;88.60;;;;;;4955947;28;20043;-71
2021/09/26 06:29:13;;;;;;;9.25;7.47;;;18.90;88.70;;;;;;4957404;29;20035;-72
2021/09/26 06:31:40;;;;;;;11.63;8.57;;;19.00;89.50;;;;;;4956636;29;20031;-71
2021/09/26 06:34:06;;;;;;;11.73;8.02;;;19.00;88.40;;;;;;4956428;29;20047;-72
2021/09/26 06:36:31;;;;;;;13.98;8.63;;;19.00;88.40;;;;;;4956258;29;20054;-70
2021/09/26 06:38:57;;;;;;;10.50;8.32;;;18.90;89.50;;;;;;4956417;29;20015;-70
2021/09/26 06:41:23;;;;;;;10.02;7.80;;;18.90;88.50;;;;;;4957141;29;20031;-70
2021/09/26 06:43:49;;;;;;;11.95;8.45;;;18.90;88.40;;;;;;4956512;29;20035;-70
2021/09/26 06:46:16;;;;;;;10.35;8.35;;;18.90;88.50;;;;;;4956547;29;20163;-70
2021/09/26 06:48:41;;;;;;;13.02;8.63;;;18.90;89.40;;;;;;4956528;29;20134;-72
2021/09/26 06:51:07;;;;;;;10.95;8.02;;;18.90;88.60;;;;;;4956357;29;20154;-71
2021/09/26 06:53:33;;;;;;;11.35;8.90;;;18.90;88.50;;;;;;4956450;29;20036;-72
2021/09/26 06:55:59;;;;;;;10.43;8.32;;;18.90;88.70;;;;;;4956868;29;20031;-72
2021/09/26 06:58:24;;;;;;;11.52;8.48;;;18.90;88.80;;;;;;4956051;29;20046;-71
2021/09/26 07:00:51;;;;;;;13.32;8.73;;;18.90;88.60;;;;;;4956226;29;20023;-72
2021/09/26 07:03:16;;;;;;;12.43;9.20;;;18.90;88.60;;;;;;4956227;29;20047;-72
2021/09/26 07:05:43;;;;;;;13.90;8.75;;;18.90;88.70;;;;;;4956437;29;20059;-72
2021/09/26 07:08:09;;;;;;;11.98;8.63;;;18.90;88.60;;;;;;4956683;29;20027;-72
2021/09/26 07:10:35;;;;;;;11.45;8.32;;;18.90;88.80;;;;;;4955900;29;20046;-72
2021/09/26 07:13:01;;;;;;;14.32;8.63;;;18.90;89.00;;;;;;4956030;29;20031;-72
2021/09/26 07:15:27;;;;;;;11.73;9.50;;;18.90;89.70;;;;;;4956203;29;20554;-72
2021/09/26 07:17:56;;;;;;;11.18;8.15;;;18.90;88.70;;;;;;4956506;29;20035;-71
2021/09/26 07:20:23;;;;;;;12.07;8.82;;;18.90;89.60;;;;;;4956467;29;20035;-71
2021/09/26 07:22:49;;;;;;;12.65;8.82;;;18.90;88.70;;;;;;4955681;29;20310;-72
2021/09/26 07:25:14;;;;;;;12.52;8.52;;;18.90;88.80;;;;;;4955766;29;20058;-72
2021/09/26 07:27:40;;;;;;;12.25;8.70;;;18.90;88.70;;;;;;4955772;29;20447;-71
2021/09/26 07:30:06;;;;;;;11.60;9.05;;;19.00;88.90;;;;;;4956222;29;20388;-72
2021/09/26 07:32:32;;;;;;;11.13;8.32;;;19.10;88.90;;;;;;4956290;29;20500;-72
2021/09/26 07:34:58;;;;;;;11.88;8.35;;;19.10;88.60;;;;;;4955540;29;20046;-71
2021/09/26 07:37:23;;;;;;;10.43;7.40;;;19.10;88.80;;;;;;4955254;28;20035;-72
2021/09/26 07:39:49;;;;;;;13.10;8.32;;;19.20;88.70;;;;;;4955913;29;20038;-72
2021/09/26 07:42:15;;;;;;;9.98;7.57;;;19.30;88.80;;;;;;4955593;29;20035;-72
2021/09/26 07:44:40;;;;;;;11.05;8.32;;;19.40;88.60;;;;;;4955818;29;20539;-72
2021/09/26 07:47:06;;;;;;;10.52;8.23;;;19.50;88.70;;;;;;4955952;29;20023;-72
2021/09/26 07:49:32;;;;;;;11.43;8.32;;;19.70;88.80;;;;;;4955722;29;20396;-72
2021/09/26 07:51:58;;;;;;;9.82;7.70;;;19.80;88.20;;;;;;4955374;29;20027;-72
2021/09/26 07:54:23;;;;;;;8.95;7.00;;;19.90;87.60;;;;;;4955432;29;20515;-72
2021/09/26 07:56:49;;;;;;;10.05;7.20;;;20.10;87.30;;;;;;4955577;29;20027;-72
2021/09/26 07:59:15;;;;;;;9.48;7.13;;;20.00;86.50;;;;;;4955631;29;20031;-72
2021/09/26 08:01:40;;;;;;;8.82;6.70;;;20.00;86.60;;;;;;4955377;29;20045;-73
2021/09/26 08:04:07;;;;;;;7.85;6.47;;;20.00;86.50;;;;;;4955482;29;20023;-72
2021/09/26 08:06:33;;;;;;;9.00;6.50;;;20.00;86.30;;;;;;4947515;29;20040;-72
2021/09/26 08:08:59;;;;;;;8.93;7.00;;;20.10;86.40;;;;;;4947165;29;20035;-72
2021/09/26 08:11:25;;;;;;;11.63;7.30;;;20.20;86.60;;;;;;4951348;29;20055;-73
2021/09/26 08:13:50;;;;;;;11.07;6.43;;;20.20;87.00;;;;;;4947040;29;20027;-72
2021/09/26 08:16:16;;;;;;;10.52;6.00;;;20.20;86.10;;;;;;4944625;29;20493;-71
2021/09/26 08:18:42;;;;;;;9.45;5.50;;;20.30;85.50;;;;;;4947694;29;20069;-73
2021/09/26 08:21:07;;;;;;;6.20;5.45;;;20.40;85.80;;;;;;4945847;29;20028;-73
2021/09/26 08:23:33;;;;;;;7.18;5.60;;;20.40;84.50;;;;;;4943579;29;20416;-72
2021/09/26 08:25:59;;;;;;;7.32;5.38;;;20.50;85.00;;;;;;4946796;29;20121;-72
2021/09/26 08:28:25;;;;;;;7.68;5.15;;;20.50;84.30;;;;;;4947350;29;20027;-73
2021/09/26 08:30:51;;;;;;;9.45;5.05;;;20.60;84.90;;;;;;4945121;29;20027;-72
2021/09/26 08:33:16;;;;;;;5.80;4.80;;;20.70;84.40;;;;;;4948188;29;20055;-71
2021/09/26 08:35:42;;;;;;;7.28;4.63;;;20.70;83.60;;;;;;4945621;29;20054;-71
2021/09/26 08:38:08;;;;;;;6.35;4.20;;;20.60;83.20;;;;;;4948089;29;20027;-71
2021/09/26 08:40:34;;;;;;;5.85;4.32;;;20.40;82.30;;;;;;4947085;29;20038;-72
2021/09/26 08:42:59;;;;;;;7.05;4.50;;;20.30;82.90;;;;;;4946686;29;20437;-71
2021/09/26 08:45:25;;;;;;;6.70;4.22;;;20.10;82.90;;;;;;4946454;29;20051;-72
2021/09/26 08:47:51;;;;;;;4.97;4.28;;;20.10;83.90;;;;;;4946724;28;20020;-71
2021/09/26 08:50:25;;;;;;;6.85;5.00;;;20.10;84.10;;;;;;4947087;29;20110;-70
2021/09/26 08:52:52;;;;;;;4.82;4.25;;;20.10;83.60;;;;;;4944242;29;20182;-72
2021/09/26 08:55:18;;;;;;;5.13;3.92;;;20.20;84.50;;;;;;4932828;29;20098;-72
2021/09/26 08:57:43;;;;;;;4.68;3.40;;;20.50;84.00;;;;;;4947513;29;20110;-71
2021/09/26 09:00:12;;;;;;;4.38;3.80;;;20.80;82.80;;;;;;4945637;29;20046;-73
2021/09/26 09:02:37;;;;;;;4.22;3.72;;;20.80;81.60;;;;;;4943684;29;20038;-72
2021/09/26 09:05:06;;;;;;;5.00;3.75;;;20.80;80.70;;;;;;4945340;29;20102;-72
2021/09/26 09:07:32;;;;;;;4.28;3.72;;;20.70;81.10;;;;;;4944174;29;20043;-72
2021/09/26 09:10:01;;;;;;;4.63;3.47;;;20.60;80.30;;;;;;4946053;29;20027;-71
2021/09/26 09:12:33;;;;;;;5.85;4.00;;;20.40;80.70;;;;;;4942754;29;20031;-71
2021/09/26 09:15:02;;;;;;;6.35;4.20;;;20.40;81.40;;;;;;4954337;29;20031;-70
2021/09/26 09:17:32;;;;;;;4.90;3.83;;;20.50;82.10;;;;;;4953459;29;20082;-71
2021/09/26 09:20:27;;;;;;;4.43;3.50;;;20.60;81.70;;;;;;4940131;29;20130;-71
2021/09/26 09:23:05;;;;;;;5.47;4.40;;;20.80;81.90;;;;;;4951802;29;20035;-71
2021/09/26 09:25:31;;;;;;;4.60;4.00;;;21.00;81.00;;;;;;4946826;29;20027;-71
2021/09/26 09:27:57;;;;;;;3.97;3.58;;;21.10;80.50;;;;;;4945515;29;20567;-71
2021/09/26 09:30:33;;;;;;;6.07;3.78;;;21.00;79.30;;;;;;4946919;29;20035;-72
2021/09/26 09:33:00;;;;;;;4.20;3.80;;;21.10;79.70;;;;;;4938406;29;20504;-71
2021/09/26 09:35:28;;;;;;;4.60;3.80;;;21.20;79.50;;;;;;4948098;29;20042;-72
2021/09/26 09:37:55;;;;;;;4.85;4.05;;;21.20;79.00;;;;;;4943533;29;20043;-71
2021/09/26 09:40:21;;;;;;;6.28;4.10;;;21.20;78.50;;;;;;4948659;29;20023;-71
2021/09/26 09:42:53;;;;;;;5.75;4.32;;;21.10;78.30;;;;;;4946324;29;20047;-72
2021/09/26 09:45:26;;;;;;;5.13;4.63;;;21.10;78.30;;;;;;4940539;29;20019;-73
2021/09/26 09:47:55;;;;;;;6.72;4.45;;;21.10;78.40;;;;;;4946618;29;20035;-71
2021/09/26 09:50:21;;;;;;;4.90;4.22;;;21.20;78.20;;;;;;4940663;29;20055;-71
2021/09/26 09:52:53;;;;;;;6.28;4.68;;;21.20;78.10;;;;;;4951370;29;20094;-72
2021/09/26 09:55:19;;;;;;;5.38;4.47;;;21.30;78.40;;;;;;4946053;29;20031;-72
2021/09/26 09:57:45;;;;;;;5.53;4.63;;;21.60;78.80;;;;;;4952426;29;20027;-71
2021/09/26 10:00:17;;;;;;;5.20;4.20;;;21.70;77.40;;;;;;4945647;29;20016;-72
2021/09/26 10:02:43;;;;;;;5.65;4.40;;;21.70;77.60;;;;;;4937948;29;20035;-71
2021/09/26 10:05:30;;;;;;;7.75;4.30;;;21.60;76.00;;;;;;4949888;29;20031;-71
2021/09/26 10:07:55;;;;;;;5.75;4.38;;;21.30;77.00;;;;;;4943352;29;20031;-71
2021/09/26 10:10:21;;;;;;;5.05;4.50;;;21.10;76.40;;;;;;4948317;29;20126;-71
2021/09/26 10:12:47;;;;;;;4.78;4.28;;;21.00;76.50;;;;;;4946100;29;20039;-71
2021/09/26 10:15:13;;;;;;;6.00;4.40;;;21.20;78.60;;;;;;4939409;29;20027;-71
2021/09/26 10:17:38;;;;;;;5.40;4.32;;;21.60;78.00;;;;;;4931856;29;20027;-71
2021/09/26 10:20:05;;;;;;;6.57;4.80;;;21.60;76.30;;;;;;4950703;29;20030;-71
2021/09/26 10:22:36;;;;;;;6.47;4.32;;;21.50;76.60;;;;;;4942796;29;20130;-72
2021/09/26 10:25:01;;;;;;;5.55;4.43;;;21.40;76.70;;;;;;4939122;29;20041;-70
2021/09/26 10:27:30;;;;;;;6.35;4.47;;;21.40;76.40;;;;;;4948589;29;20035;-70
2021/09/26 10:30:08;;;;;;;7.30;4.70;;;21.30;76.60;;;;;;4946369;29;20027;-70
2021/09/26 10:32:36;;;;;;;5.55;4.70;;;21.30;77.20;;;;;;4935138;29;20438;-71
2021/09/26 10:35:02;;;;;;;5.90;4.47;;;21.50;77.60;;;;;;4949926;29;20138;-71
2021/09/26 10:37:28;;;;;;;4.88;4.35;;;21.70;76.70;;;;;;4942741;29;20119;-71
2021/09/26 10:39:54;;;;;;;5.35;3.85;;;21.80;76.90;;;;;;4944407;29;20063;-71
2021/09/26 10:42:24;;;;;;;5.30;3.70;;;22.20;77.30;;;;;;4946206;29;20070;-71
2021/09/26 10:44:49;;;;;;;4.60;3.47;;;22.50;75.20;;;;;;4952604;29;20119;-70
2021/09/26 10:47:19;;;;;;;3.97;3.05;;;23.20;77.00;;;;;;4953108;29;20122;-71
2021/09/26 10:50:00;;;;;;;4.95;3.22;;;23.70;73.00;;;;;;4952509;29;20503;-71
2021/09/26 10:52:33;;;;;;;3.63;2.90;;;24.10;73.80;;;;;;4953039;29;20090;-71
2021/09/26 10:55:17;;;;;;;;;;;24.60;73.80;;;;;;4953347;29;20111;-70
2021/09/26 10:57:46;;;;;;;3.20;2.88;;;24.90;72.90;;;;;;4952816;29;20377;-70
2021/09/26 11:00:28;;;;;;;3.72;2.92;;;25.30;68.90;;;;;;4952458;29;20035;-70
2021/09/26 11:02:55;;;;;;;4.00;2.80;;;24.90;67.00;;;;;;4943821;29;20385;-72
2021/09/26 11:05:43;;;;;;;3.22;2.40;;;24.50;68.30;;;;;;4948765;29;20621;-72
2021/09/26 11:08:25;;;;;;;3.30;2.80;;;24.30;68.10;;;;;;4942699;29;20512;-72
2021/09/26 11:11:00;;;;;;;3.10;2.73;;;24.00;67.10;;;;;;4947325;28;20109;-72
2021/09/26 11:13:32;;;;;;;3.90;3.10;;;23.80;69.40;;;;;;4948005;29;20166;-72
2021/09/26 11:16:02;;;;;;;3.60;2.63;;;23.90;70.00;;;;;;4943716;29;20046;-72
2021/09/26 11:18:52;;;;;;;4.55;3.00;;;24.10;69.70;;;;;;4951412;29;20031;-71
2021/09/26 11:21:38;;;;;;;5.28;3.05;;;24.00;70.20;;;;;;4955204;29;20042;-72
2021/09/26 11:24:13;;;;;;;5.30;3.22;;;24.10;70.80;;;;;;4945680;29;20084;-70
2021/09/26 11:26:57;;;;;;;4.05;3.20;;;24.10;68.90;;;;;;4943550;29;20020;-70
2021/09/26 11:29:43;;;;;;;4.38;2.80;;;24.10;70.10;;;;;;4951830;29;20040;-72
2021/09/26 11:32:24;;;;;;;6.80;4.72;;;24.60;70.60;;;;;;4936611;29;20044;-72
2021/09/26 11:34:55;;;;;;;6.00;3.60;;;24.50;66.60;;;;;;4950932;29;20505;-71
2021/09/26 11:37:37;;;;;;;3.97;3.40;;;24.30;68.40;;;;;;4947752;29;20024;-71
2021/09/26 11:40:12;;;;;;;3.50;3.20;;;24.70;70.50;;;;;;4944047;29;20042;-71
2021/09/26 11:42:40;;;;;;;3.45;3.10;;;24.90;67.30;;;;;;4950304;29;20054;-71
2021/09/26 11:45:15;;;;;;;4.00;3.00;;;24.70;65.40;;;;;;4942554;29;20548;-71
2021/09/26 11:47:41;;;;;;;3.85;2.80;;;24.40;65.90;;;;;;4948048;29;20031;-72
2021/09/26 11:50:12;;;;;;;3.42;2.90;;;24.30;67.00;;;;;;4946729;29;20527;-71
2021/09/26 11:52:43;;;;;;;3.60;2.75;;;25.80;69.50;;;;;;4948410;29;20493;-71
2021/09/26 11:55:10;;;;;;;3.85;3.05;;;26.30;65.70;;;;;;4949075;29;20019;-71
2021/09/26 11:57:36;;;;;;;4.07;3.35;;;26.20;64.30;;;;;;4940115;29;20056;-71
2021/09/26 12:00:06;;;;;;;4.30;3.08;;;25.80;61.80;;;;;;4950653;29;20059;-72
2021/09/26 12:02:34;;;;;;;4.03;3.40;;;25.20;61.60;;;;;;4943263;29;20031;-72
2021/09/26 12:05:01;;;;;;;3.33;2.80;;;24.70;63.10;;;;;;4950130;29;20039;-72
2021/09/26 12:07:31;;;;;;;3.17;2.45;;;26.40;71.60;;;;;;4947202;29;20524;-71
2021/09/26 12:09:57;;;;;;;4.13;2.70;;;29.50;66.20;;;;;;4942726;29;20154;-72
2021/09/26 12:12:25;;;;;;;3.17;2.33;;;31.80;59.20;;;;;;4949797;29;20118;-71
2021/09/26 12:15:02;;;;;;;2.55;1.77;;;33.30;56.30;;;;;;4942083;29;20035;-71
2021/09/26 12:17:30;;;;;;;2.63;1.90;;;32.60;51.50;;;;;;4951332;29;20070;-71
2021/09/26 12:19:59;;;;;;;2.63;2.10;;;30.70;47.60;;;;;;4946734;29;20032;-71
2021/09/26 12:22:28;;;;;;;3.95;2.35;;;28.70;49.40;;;;;;4945830;28;20087;-73
2021/09/26 12:25:06;;;;;;;4.10;2.50;;;27.20;53.20;;;;;;4949312;29;20023;-70
2021/09/26 12:27:41;;;;;;;2.75;2.35;;;26.40;56.20;;;;;;4954722;29;20035;-73
2021/09/26 12:30:15;;;;;;;4.00;2.30;;;25.90;57.10;;;;;;4940348;29;20058;-73
2021/09/26 12:32:54;;;;;;;3.63;2.83;;;25.50;58.80;;;;;;4955196;29;20094;-72
2021/09/26 12:35:47;;;;;;;2.17;1.92;;;25.50;62.40;;;;;;4953721;29;20485;-71
2021/09/26 12:38:27;;;;;;;2.83;2.15;;;29.10;69.10;;;;;;4953660;29;20035;-71
2021/09/26 12:41:01;;;;;;;2.28;2.08;;;30.10;52.00;;;;;;4954619;29;20035;-71
2021/09/26 12:43:35;;;;;;;2.28;1.88;;;29.40;55.80;;;;;;4954915;29;20081;-71
2021/09/26 12:46:04;;;;;;;2.72;1.90;;;31.10;51.10;;;;;;4954775;29;20420;-71
2021/09/26 12:48:32;;;;;;;2.20;1.67;;;30.00;49.40;;;;;;4954924;29;20031;-72
2021/09/26 12:51:04;;;;;;;1.70;1.45;;;30.90;52.70;;;;;;4954613;29;20027;-71